sensor_id;sensor_type;location;lat;lon;timestamp;pressure;altitude;pressure_sealevel;temperature;humidity
63090;BME280;49174;43.198;27.824;2023-09-19T00:01:15;101979.94;;;17.00;93.13
63090;BME280;49174;43.198;27.824;2023-09-19T00:03:45;101979.50;;;16.89;93.77
63090;BME280;49174;43.198;27.824;2023-09-19T00:06:10;101969.44;;;16.83;93.67
63090;BME280;49174;43.198;27.824;2023-09-19T00:08:38;101967.56;;;16.84;93.68
63090;BME280;49174;43.198;27.824;2023-09-19T00:11:04;101973.63;;;16.79;94.86
63090;BME280;49174;43.198;27.824;2023-09-19T00:13:30;101972.75;;;16.72;94.73
63090;BME280;49174;43.198;27.824;2023-09-19T00:15:56;101972.53;;;16.73;94.38
63090;BME280;49174;43.198;27.824;2023-09-19T00:18:24;101967.31;;;16.72;94.78
63090;BME280;49174;43.198;27.824;2023-09-19T00:20:57;101973.78;;;16.64;95.14
63090;BME280;49174;43.198;27.824;2023-09-19T00:23:23;101965.19;;;16.67;95.75
63090;BME280;49174;43.198;27.824;2023-09-19T00:25:50;101969.81;;;16.67;94.54
63090;BME280;49174;43.198;27.824;2023-09-19T00:28:17;101967.50;;;16.64;96.15
63090;BME280;49174;43.198;27.824;2023-09-19T00:30:45;101963.72;;;16.58;96.88
63090;BME280;49174;43.198;27.824;2023-09-19T00:33:21;101964.34;;;16.60;97.71
63090;BME280;49174;43.198;27.824;2023-09-19T00:35:52;101963.72;;;16.65;97.09
63090;BME280;49174;43.198;27.824;2023-09-19T00:38:18;101960.34;;;16.63;96.34
63090;BME280;49174;43.198;27.824;2023-09-19T00:40:48;101958.50;;;16.63;96.86
63090;BME280;49174;43.198;27.824;2023-09-19T00:43:14;101961.84;;;16.59;97.03
63090;BME280;49174;43.198;27.824;2023-09-19T00:45:43;101959.53;;;16.56;97.47
63090;BME280;49174;43.198;27.824;2023-09-19T00:48:09;101962.66;;;16.52;97.40
63090;BME280;49174;43.198;27.824;2023-09-19T00:50:35;101962.63;;;16.46;98.44
63090;BME280;49174;43.198;27.824;2023-09-19T00:53:02;101958.84;;;16.40;98.86
63090;BME280;49174;43.198;27.824;2023-09-19T00:55:34;101954.66;;;16.38;99.38
63090;BME280;49174;43.198;27.824;2023-09-19T00:58:00;101955.53;;;16.45;99.16
63090;BME280;49174;43.198;27.824;2023-09-19T01:00:26;101954.91;;;16.49;97.75
63090;BME280;49174;43.198;27.824;2023-09-19T01:02:52;101958.88;;;16.53;97.71
63090;BME280;49174;43.198;27.824;2023-09-19T01:05:19;101959.31;;;16.50;96.94
63090;BME280;49174;43.198;27.824;2023-09-19T01:07:44;101957.41;;;16.44;99.03
63090;BME280;49174;43.198;27.824;2023-09-19T01:10:13;101955.28;;;16.46;97.45
63090;BME280;49174;43.198;27.824;2023-09-19T01:13:03;101958.00;;;16.40;98.51
63090;BME280;49174;43.198;27.824;2023-09-19T01:29:26;101946.03;;;16.21;100.00
63090;BME280;49174;43.198;27.824;2023-09-19T01:32:02;101937.66;;;16.22;100.00
63090;BME280;49174;43.198;27.824;2023-09-19T01:37:13;101938.31;;;16.31;100.00
63090;BME280;49174;43.198;27.824;2023-09-19T01:39:40;101942.09;;;16.30;99.03
63090;BME280;49174;43.198;27.824;2023-09-19T01:45:24;101944.53;;;16.18;99.70
63090;BME280;49174;43.198;27.824;2023-09-19T01:47:50;101945.19;;;16.14;100.00
63090;BME280;49174;43.198;27.824;2023-09-19T01:52:54;101958.78;;;16.14;100.00
63090;BME280;49174;43.198;27.824;2023-09-19T01:55:23;101947.84;;;16.07;100.00
63090;BME280;49174;43.198;27.824;2023-09-19T02:00:55;101947.19;;;15.98;100.00
63090;BME280;49174;43.198;27.824;2023-09-19T02:03:24;101955.78;;;15.95;100.00
63090;BME280;49174;43.198;27.824;2023-09-19T02:05:51;101956.00;;;15.94;100.00
63090;BME280;49174;43.198;27.824;2023-09-19T02:08:20;101956.19;;;15.92;100.00
63090;BME280;49174;43.198;27.824;2023-09-19T02:10:46;101953.63;;;15.84;100.00
63090;BME280;49174;43.198;27.824;2023-09-19T02:13:16;101951.50;;;15.79;100.00
63090;BME280;49174;43.198;27.824;2023-09-19T02:15:42;101955.88;;;15.74;100.00
63090;BME280;49174;43.198;27.824;2023-09-19T02:18:10;101950.22;;;15.69;100.00
63090;BME280;49174;43.198;27.824;2023-09-19T02:20:37;101952.53;;;15.72;100.00
63090;BME280;49174;43.198;27.824;2023-09-19T02:23:03;101947.34;;;15.77;100.00
63090;BME280;49174;43.198;27.824;2023-09-19T02:25:29;101952.78;;;15.77;100.00
63090;BME280;49174;43.198;27.824;2023-09-19T02:27:56;101947.72;;;15.74;100.00
63090;BME280;49174;43.198;27.824;2023-09-19T02:30:24;101947.09;;;15.72;100.00
63090;BME280;49174;43.198;27.824;2023-09-19T02:32:51;101945.78;;;15.68;100.00
63090;BME280;49174;43.198;27.824;2023-09-19T02:35:17;101948.47;;;15.61;100.00
63090;BME280;49174;43.198;27.824;2023-09-19T02:37:45;101942.59;;;15.57;100.00
63090;BME280;49174;43.198;27.824;2023-09-19T02:40:11;101938.81;;;15.52;100.00
63090;BME280;49174;43.198;27.824;2023-09-19T02:42:54;101936.91;;;15.52;100.00
63090;BME280;49174;43.198;27.824;2023-09-19T02:45:20;101933.34;;;15.52;100.00
63090;BME280;49174;43.198;27.824;2023-09-19T02:47:46;101938.81;;;15.52;100.00
63090;BME280;49174;43.198;27.824;2023-09-19T02:50:14;101935.22;;;15.51;100.00
63090;BME280;49174;43.198;27.824;2023-09-19T02:52:42;101939.56;;;15.46;100.00
63090;BME280;49174;43.198;27.824;2023-09-19T02:55:09;101935.38;;;15.43;100.00
63090;BME280;49174;43.198;27.824;2023-09-19T02:57:36;101946.03;;;15.38;100.00
63090;BME280;49174;43.198;27.824;2023-09-19T03:00:09;101931.97;;;15.34;100.00
63090;BME280;49174;43.198;27.824;2023-09-19T03:02:40;101932.81;;;15.35;100.00
63090;BME280;49174;43.198;27.824;2023-09-19T03:05:07;101925.31;;;15.37;100.00
63090;BME280;49174;43.198;27.824;2023-09-19T03:07:33;101935.16;;;15.38;100.00
63090;BME280;49174;43.198;27.824;2023-09-19T03:09:59;101930.34;;;15.40;100.00
63090;BME280;49174;43.198;27.824;2023-09-19T03:12:26;101938.72;;;15.38;100.00
63090;BME280;49174;43.198;27.824;2023-09-19T03:14:51;101928.03;;;15.37;100.00
63090;BME280;49174;43.198;27.824;2023-09-19T03:17:17;101936.34;;;15.29;100.00
63090;BME280;49174;43.198;27.824;2023-09-19T03:19:45;101940.09;;;15.28;100.00
63090;BME280;49174;43.198;27.824;2023-09-19T03:22:12;101943.66;;;15.28;100.00
63090;BME280;49174;43.198;27.824;2023-09-19T03:24:37;101946.97;;;15.24;100.00
63090;BME280;49174;43.198;27.824;2023-09-19T03:27:03;101943.22;;;15.25;100.00
63090;BME280;49174;43.198;27.824;2023-09-19T03:29:29;101948.25;;;15.28;100.00
63090;BME280;49174;43.198;27.824;2023-09-19T03:31:55;101952.25;;;15.32;100.00
63090;BME280;49174;43.198;27.824;2023-09-19T03:34:20;101940.34;;;15.33;100.00
63090;BME280;49174;43.198;27.824;2023-09-19T03:36:46;101941.19;;;15.33;100.00
63090;BME280;49174;43.198;27.824;2023-09-19T03:39:12;101941.59;;;15.30;100.00
63090;BME280;49174;43.198;27.824;2023-09-19T03:41:37;101952.66;;;15.29;100.00
63090;BME280;49174;43.198;27.824;2023-09-19T03:44:04;101943.88;;;15.27;100.00
63090;BME280;49174;43.198;27.824;2023-09-19T03:46:29;101947.59;;;15.26;100.00
63090;BME280;49174;43.198;27.824;2023-09-19T03:48:55;101955.38;;;15.29;100.00
63090;BME280;49174;43.198;27.824;2023-09-19T03:51:21;101950.31;;;15.26;100.00
63090;BME280;49174;43.198;27.824;2023-09-19T03:53:47;101945.72;;;15.26;100.00
63090;BME280;49174;43.198;27.824;2023-09-19T03:56:14;101947.84;;;15.31;100.00
63090;BME280;49174;43.198;27.824;2023-09-19T03:58:40;101952.06;;;15.33;100.00
63090;BME280;49174;43.198;27.824;2023-09-19T04:01:06;101949.13;;;15.35;100.00
63090;BME280;49174;43.198;27.824;2023-09-19T04:03:34;101943.06;;;15.33;100.00
63090;BME280;49174;43.198;27.824;2023-09-19T04:06:11;101947.47;;;15.34;100.00
63090;BME280;49174;43.198;27.824;2023-09-19T04:08:37;101951.22;;;15.33;100.00
63090;BME280;49174;43.198;27.824;2023-09-19T04:11:02;101952.25;;;15.32;100.00
63090;BME280;49174;43.198;27.824;2023-09-19T04:13:28;101933.03;;;15.33;100.00
63090;BME280;49174;43.198;27.824;2023-09-19T04:15:54;101933.69;;;15.35;100.00
63090;BME280;49174;43.198;27.824;2023-09-19T04:18:19;101922.19;;;15.40;100.00
63090;BME280;49174;43.198;27.824;2023-09-19T04:20:52;101927.88;;;15.45;100.00
63090;BME280;49174;43.198;27.824;2023-09-19T04:23:18;101927.47;;;15.48;100.00
63090;BME280;49174;43.198;27.824;2023-09-19T04:25:47;101927.06;;;15.51;100.00
63090;BME280;49174;43.198;27.824;2023-09-19T04:28:13;101929.19;;;15.56;100.00
63090;BME280;49174;43.198;27.824;2023-09-19T04:30:39;101928.75;;;15.52;100.00
63090;BME280;49174;43.198;27.824;2023-09-19T04:33:07;101933.34;;;15.52;100.00
63090;BME280;49174;43.198;27.824;2023-09-19T04:35:33;101937.31;;;15.49;100.00
63090;BME280;49174;43.198;27.824;2023-09-19T04:38:00;101928.50;;;15.47;100.00
63090;BME280;49174;43.198;27.824;2023-09-19T04:40:25;101930.97;;;15.42;100.00
63090;BME280;49174;43.198;27.824;2023-09-19T04:42:55;101930.97;;;15.42;100.00
63090;BME280;49174;43.198;27.824;2023-09-19T04:45:24;101925.53;;;15.42;100.00
63090;BME280;49174;43.198;27.824;2023-09-19T04:47:50;101934.34;;;15.44;100.00
63090;BME280;49174;43.198;27.824;2023-09-19T04:50:16;101926.84;;;15.46;100.00
63090;BME280;49174;43.198;27.824;2023-09-19T04:52:45;101939.00;;;15.50;100.00
63090;BME280;49174;43.198;27.824;2023-09-19T04:55:11;101928.75;;;15.52;100.00
63090;BME280;49174;43.198;27.824;2023-09-19T04:57:46;101923.94;;;15.54;100.00
63090;BME280;49174;43.198;27.824;2023-09-19T05:00:17;101916.81;;;15.53;100.00
63090;BME280;49174;43.198;27.824;2023-09-19T05:02:45;101913.69;;;15.56;100.00
63090;BME280;49174;43.198;27.824;2023-09-19T05:05:12;101918.97;;;15.64;100.00
63090;BME280;49174;43.198;27.824;2023-09-19T05:07:40;101912.47;;;15.65;100.00
63090;BME280;49174;43.198;27.824;2023-09-19T05:10:07;101911.91;;;15.70;100.00
63090;BME280;49174;43.198;27.824;2023-09-19T05:12:35;101909.25;;;15.77;100.00
63090;BME280;49174;43.198;27.824;2023-09-19T05:15:02;101910.69;;;15.79;100.00
63090;BME280;49174;43.198;27.824;2023-09-19T05:17:29;101909.28;;;15.90;100.00
63090;BME280;49174;43.198;27.824;2023-09-19T05:19:54;101915.59;;;15.97;100.00
63090;BME280;49174;43.198;27.824;2023-09-19T05:22:20;101922.91;;;15.97;100.00
63090;BME280;49174;43.198;27.824;2023-09-19T05:24:45;101906.81;;;16.02;100.00
63090;BME280;49174;43.198;27.824;2023-09-19T05:27:14;101912.28;;;16.08;100.00
63090;BME280;49174;43.198;27.824;2023-09-19T05:29:43;101907.66;;;16.16;100.00
63090;BME280;49174;43.198;27.824;2023-09-19T05:32:10;101915.66;;;16.24;100.00
63090;BME280;49174;43.198;27.824;2023-09-19T05:34:36;101917.13;;;16.26;100.00
63090;BME280;49174;43.198;27.824;2023-09-19T05:37:02;101914.44;;;16.33;100.00
63090;BME280;49174;43.198;27.824;2023-09-19T05:39:28;101909.81;;;16.40;100.00
63090;BME280;49174;43.198;27.824;2023-09-19T05:41:53;101908.97;;;16.46;100.00
63090;BME280;49174;43.198;27.824;2023-09-19T05:44:20;101907.13;;;16.53;100.00
63090;BME280;49174;43.198;27.824;2023-09-19T05:46:45;101909.84;;;16.60;100.00
63090;BME280;49174;43.198;27.824;2023-09-19T05:49:14;101905.44;;;16.66;100.00
63090;BME280;49174;43.198;27.824;2023-09-19T05:51:39;101908.59;;;16.76;100.00
63090;BME280;49174;43.198;27.824;2023-09-19T05:54:05;101908.66;;;16.83;100.00
63090;BME280;49174;43.198;27.824;2023-09-19T05:56:30;101906.53;;;16.91;100.00
63090;BME280;49174;43.198;27.824;2023-09-19T05:58:56;101912.63;;;17.00;100.00
63090;BME280;49174;43.198;27.824;2023-09-19T06:01:22;101913.88;;;17.11;100.00
63090;BME280;49174;43.198;27.824;2023-09-19T06:03:48;101910.50;;;17.22;100.00
63090;BME280;49174;43.198;27.824;2023-09-19T06:06:14;101914.47;;;17.26;100.00
63090;BME280;49174;43.198;27.824;2023-09-19T06:08:40;101912.97;;;17.37;100.00
63090;BME280;49174;43.198;27.824;2023-09-19T06:11:09;101922.59;;;17.46;100.00
63090;BME280;49174;43.198;27.824;2023-09-19T06:13:35;101924.06;;;17.55;100.00
63090;BME280;49174;43.198;27.824;2023-09-19T06:16:01;101920.22;;;17.63;100.00
63090;BME280;49174;43.198;27.824;2023-09-19T06:18:31;101917.88;;;17.80;100.00
63090;BME280;49174;43.198;27.824;2023-09-19T06:20:59;101914.28;;;17.93;100.00
63090;BME280;49174;43.198;27.824;2023-09-19T06:23:25;101916.31;;;18.04;98.44
63090;BME280;49174;43.198;27.824;2023-09-19T06:25:54;101916.69;;;18.14;96.46
63090;BME280;49174;43.198;27.824;2023-09-19T06:28:20;101921.22;;;18.27;96.49
63090;BME280;49174;43.198;27.824;2023-09-19T06:30:50;101929.59;;;18.39;96.39
63090;BME280;49174;43.198;27.824;2023-09-19T06:33:15;101923.00;;;18.46;95.77
63090;BME280;49174;43.198;27.824;2023-09-19T06:35:42;101926.91;;;18.57;95.03
63090;BME280;49174;43.198;27.824;2023-09-19T06:38:10;101934.41;;;18.68;95.01
63090;BME280;49174;43.198;27.824;2023-09-19T06:40:38;101928.88;;;18.82;92.72
63090;BME280;49174;43.198;27.824;2023-09-19T06:43:05;101927.53;;;18.91;92.30
63090;BME280;49174;43.198;27.824;2023-09-19T06:45:30;101930.81;;;19.00;90.58
63090;BME280;49174;43.198;27.824;2023-09-19T06:47:57;101933.25;;;19.08;90.12
63090;BME280;49174;43.198;27.824;2023-09-19T06:50:23;101932.78;;;19.17;89.98
63090;BME280;49174;43.198;27.824;2023-09-19T06:52:53;101926.19;;;19.25;89.61
63090;BME280;49174;43.198;27.824;2023-09-19T06:55:21;101921.25;;;19.34;88.24
63090;BME280;49174;43.198;27.824;2023-09-19T06:57:49;101924.88;;;19.46;89.31
63090;BME280;49174;43.198;27.824;2023-09-19T07:00:16;101930.44;;;19.58;87.79
63090;BME280;49174;43.198;27.824;2023-09-19T07:02:54;101927.81;;;19.70;88.64
63090;BME280;49174;43.198;27.824;2023-09-19T07:05:20;101925.31;;;19.86;88.31
63090;BME280;49174;43.198;27.824;2023-09-19T07:07:47;101923.44;;;19.99;86.83
63090;BME280;49174;43.198;27.824;2023-09-19T07:10:13;101923.75;;;20.09;85.98
63090;BME280;49174;43.198;27.824;2023-09-19T07:12:39;101924.63;;;20.21;83.84
63090;BME280;49174;43.198;27.824;2023-09-19T07:15:06;101934.16;;;20.30;82.32
63090;BME280;49174;43.198;27.824;2023-09-19T07:17:32;101927.31;;;20.40;83.59
63090;BME280;49174;43.198;27.824;2023-09-19T07:19:58;101920.59;;;20.54;83.20
63090;BME280;49174;43.198;27.824;2023-09-19T07:22:25;101928.34;;;20.69;80.79
63090;BME280;49174;43.198;27.824;2023-09-19T07:24:51;101924.31;;;20.83;79.88
63090;BME280;49174;43.198;27.824;2023-09-19T07:27:19;101925.53;;;20.99;80.04
63090;BME280;49174;43.198;27.824;2023-09-19T07:29:44;101926.75;;;21.15;79.24
63090;BME280;49174;43.198;27.824;2023-09-19T07:32:10;101922.78;;;21.34;79.84
63090;BME280;49174;43.198;27.824;2023-09-19T07:34:37;101923.50;;;21.53;78.63
63090;BME280;49174;43.198;27.824;2023-09-19T07:37:06;101924.66;;;21.69;77.67
63090;BME280;49174;43.198;27.824;2023-09-19T07:39:31;101924.72;;;21.86;77.58
63090;BME280;49174;43.198;27.824;2023-09-19T07:41:57;101926.97;;;22.01;76.04
63090;BME280;49174;43.198;27.824;2023-09-19T07:44:23;101924.50;;;22.16;75.23
63090;BME280;49174;43.198;27.824;2023-09-19T07:46:51;101915.50;;;22.33;73.46
63090;BME280;49174;43.198;27.824;2023-09-19T07:49:17;101910.34;;;22.36;71.02
63090;BME280;49174;43.198;27.824;2023-09-19T07:51:43;101913.50;;;22.45;72.99
63090;BME280;49174;43.198;27.824;2023-09-19T07:54:12;101905.53;;;22.60;73.58
63090;BME280;49174;43.198;27.824;2023-09-19T07:56:38;101901.38;;;22.74;72.11
63090;BME280;49174;43.198;27.824;2023-09-19T07:59:03;101901.28;;;22.86;68.87
63090;BME280;49174;43.198;27.824;2023-09-19T08:01:30;101905.28;;;22.95;67.13
63090;BME280;49174;43.198;27.824;2023-09-19T08:03:56;101899.53;;;23.14;67.34
63090;BME280;49174;43.198;27.824;2023-09-19T08:06:21;101903.13;;;23.36;66.55
63090;BME280;49174;43.198;27.824;2023-09-19T08:08:50;101900.03;;;23.50;65.40
63090;BME280;49174;43.198;27.824;2023-09-19T08:11:16;101895.28;;;23.67;64.48
63090;BME280;49174;43.198;27.824;2023-09-19T08:13:46;101892.47;;;23.84;64.77
63090;BME280;49174;43.198;27.824;2023-09-19T08:16:15;101895.50;;;24.09;60.53
63090;BME280;49174;43.198;27.824;2023-09-19T08:18:40;101889.16;;;24.09;62.45
63090;BME280;49174;43.198;27.824;2023-09-19T08:21:07;101894.78;;;24.19;62.58
63090;BME280;49174;43.198;27.824;2023-09-19T08:23:37;101888.53;;;24.29;59.84
63090;BME280;49174;43.198;27.824;2023-09-19T08:26:04;101891.63;;;24.33;62.02
63090;BME280;49174;43.198;27.824;2023-09-19T08:28:32;101882.16;;;24.50;61.58
63090;BME280;49174;43.198;27.824;2023-09-19T08:31:02;101888.34;;;24.63;60.82
63090;BME280;49174;43.198;27.824;2023-09-19T08:33:34;101881.97;;;24.62;62.00
63090;BME280;49174;43.198;27.824;2023-09-19T08:36:04;101878.91;;;24.59;60.57
63090;BME280;49174;43.198;27.824;2023-09-19T08:38:34;101875.03;;;24.60;60.41
63090;BME280;49174;43.198;27.824;2023-09-19T08:41:00;101869.06;;;24.73;60.52
63090;BME280;49174;43.198;27.824;2023-09-19T08:43:27;101874.94;;;24.82;60.13
63090;BME280;49174;43.198;27.824;2023-09-19T08:46:05;101875.31;;;24.95;58.33
63090;BME280;49174;43.198;27.824;2023-09-19T08:48:34;101865.34;;;24.89;57.72
63090;BME280;49174;43.198;27.824;2023-09-19T08:53:41;101859.06;;;24.62;59.89
63090;BME280;49174;43.198;27.824;2023-09-19T08:56:10;101859.19;;;24.77;58.94
63090;BME280;49174;43.198;27.824;2023-09-19T08:58:46;101861.41;;;24.80;57.58
63090;BME280;49174;43.198;27.824;2023-09-19T09:01:17;101859.25;;;24.87;58.31
63090;BME280;49174;43.198;27.824;2023-09-19T09:03:51;101856.56;;;24.97;57.17
63090;BME280;49174;43.198;27.824;2023-09-19T09:06:19;101844.50;;;25.14;56.36
63090;BME280;49174;43.198;27.824;2023-09-19T09:08:46;101843.16;;;25.16;57.19
63090;BME280;49174;43.198;27.824;2023-09-19T09:11:12;101843.41;;;25.15;56.20
63090;BME280;49174;43.198;27.824;2023-09-19T09:13:38;101847.88;;;25.16;53.29
63090;BME280;49174;43.198;27.824;2023-09-19T09:16:07;101844.28;;;25.21;55.65
63090;BME280;49174;43.198;27.824;2023-09-19T09:18:34;101837.41;;;25.28;56.33
63090;BME280;49174;43.198;27.824;2023-09-19T09:21:00;101830.53;;;25.31;55.85
63090;BME280;49174;43.198;27.824;2023-09-19T09:23:26;101833.00;;;25.27;56.41
63090;BME280;49174;43.198;27.824;2023-09-19T09:25:55;101829.72;;;25.35;58.98
63090;BME280;49174;43.198;27.824;2023-09-19T09:28:29;101829.50;;;25.52;58.97
63090;BME280;49174;43.198;27.824;2023-09-19T09:30:56;101834.81;;;25.69;56.96
63090;BME280;49174;43.198;27.824;2023-09-19T09:33:23;101834.22;;;25.57;55.53
63090;BME280;49174;43.198;27.824;2023-09-19T09:35:55;101830.84;;;25.39;58.19
63090;BME280;49174;43.198;27.824;2023-09-19T09:38:25;101822.94;;;25.69;56.49
63090;BME280;49174;43.198;27.824;2023-09-19T09:40:57;101826.84;;;25.88;56.50
63090;BME280;49174;43.198;27.824;2023-09-19T09:48:57;101815.00;;;26.34;54.49
63090;BME280;49174;43.198;27.824;2023-09-19T09:51:49;101806.72;;;26.34;54.07
63090;BME280;49174;43.198;27.824;2023-09-19T09:54:29;101809.75;;;26.42;54.43
63090;BME280;49174;43.198;27.824;2023-09-19T09:57:08;101803.13;;;26.28;53.50
63090;BME280;49174;43.198;27.824;2023-09-19T09:59:47;101804.47;;;26.10;53.89
63090;BME280;49174;43.198;27.824;2023-09-19T10:02:14;101805.03;;;26.12;54.77
63090;BME280;49174;43.198;27.824;2023-09-19T10:04:45;101804.22;;;26.22;54.35
63090;BME280;49174;43.198;27.824;2023-09-19T10:07:30;101799.50;;;26.12;54.39
63090;BME280;49174;43.198;27.824;2023-09-19T10:10:06;101797.56;;;25.97;52.73
63090;BME280;49174;43.198;27.824;2023-09-19T10:12:46;101793.97;;;25.92;54.17
63090;BME280;49174;43.198;27.824;2023-09-19T10:15:15;101790.09;;;25.93;53.65
63090;BME280;49174;43.198;27.824;2023-09-19T10:17:43;101797.75;;;25.65;56.27
63090;BME280;49174;43.198;27.824;2023-09-19T10:20:16;101785.59;;;25.61;56.14
63090;BME280;49174;43.198;27.824;2023-09-19T10:23:09;101788.63;;;25.59;54.83
63090;BME280;49174;43.198;27.824;2023-09-19T10:25:42;101786.09;;;25.42;56.36
63090;BME280;49174;43.198;27.824;2023-09-19T10:28:12;101792.53;;;25.69;56.43
63090;BME280;49174;43.198;27.824;2023-09-19T10:30:46;101794.78;;;25.87;57.10
63090;BME280;49174;43.198;27.824;2023-09-19T10:33:14;101780.69;;;26.04;56.50
63090;BME280;49174;43.198;27.824;2023-09-19T10:35:45;101784.56;;;26.23;55.35
63090;BME280;49174;43.198;27.824;2023-09-19T10:38:12;101783.50;;;26.24;56.25
63090;BME280;49174;43.198;27.824;2023-09-19T10:40:39;101785.66;;;26.48;55.36
63090;BME280;49174;43.198;27.824;2023-09-19T10:43:19;101780.97;;;26.48;53.49
63090;BME280;49174;43.198;27.824;2023-09-19T10:45:45;101779.03;;;26.54;55.07
63090;BME280;49174;43.198;27.824;2023-09-19T10:48:18;101774.88;;;26.57;54.35
63090;BME280;49174;43.198;27.824;2023-09-19T10:50:51;101771.03;;;26.22;55.07
63090;BME280;49174;43.198;27.824;2023-09-19T10:53:21;101769.09;;;26.27;55.55
63090;BME280;49174;43.198;27.824;2023-09-19T10:55:56;101762.19;;;25.94;56.61
63090;BME280;49174;43.198;27.824;2023-09-19T10:58:29;101760.19;;;25.74;57.75
63090;BME280;49174;43.198;27.824;2023-09-19T11:03:22;101755.25;;;26.12;57.45
63090;BME280;49174;43.198;27.824;2023-09-19T11:06:05;101761.31;;;26.50;55.96
63090;BME280;49174;43.198;27.824;2023-09-19T11:14:15;101751.09;;;26.56;55.11
63090;BME280;49174;43.198;27.824;2023-09-19T11:30:47;101733.91;;;26.64;57.72
63090;BME280;49174;43.198;27.824;2023-09-19T11:33:24;101736.97;;;26.47;57.27
63090;BME280;49174;43.198;27.824;2023-09-19T11:46:17;101729.72;;;26.77;57.20
63090;BME280;49174;43.198;27.824;2023-09-19T11:48:50;101723.09;;;26.78;57.98
63090;BME280;49174;43.198;27.824;2023-09-19T11:51:22;101727.00;;;26.66;56.37
63090;BME280;49174;43.198;27.824;2023-09-19T11:53:55;101727.53;;;26.63;58.31
63090;BME280;49174;43.198;27.824;2023-09-19T11:56:23;101724.81;;;26.38;57.34
63090;BME280;49174;43.198;27.824;2023-09-19T11:58:54;101720.13;;;26.18;58.58
63090;BME280;49174;43.198;27.824;2023-09-19T12:01:32;101722.63;;;25.99;59.58
63090;BME280;49174;43.198;27.824;2023-09-19T12:04:03;101714.34;;;26.09;61.18
63090;BME280;49174;43.198;27.824;2023-09-19T12:06:30;101709.38;;;26.11;60.15
63090;BME280;49174;43.198;27.824;2023-09-19T12:08:58;101714.91;;;26.11;60.53
63090;BME280;49174;43.198;27.824;2023-09-19T12:11:29;101704.34;;;26.23;57.62
63090;BME280;49174;43.198;27.824;2023-09-19T12:13:59;101708.50;;;26.26;55.76
63090;BME280;49174;43.198;27.824;2023-09-19T12:16:26;101702.72;;;26.02;58.06
63090;BME280;49174;43.198;27.824;2023-09-19T12:18:56;101708.81;;;26.09;57.10
63090;BME280;49174;43.198;27.824;2023-09-19T12:21:29;101697.19;;;26.22;55.72
63090;BME280;49174;43.198;27.824;2023-09-19T12:24:07;101697.69;;;26.35;55.88
63090;BME280;49174;43.198;27.824;2023-09-19T12:26:43;101697.16;;;26.27;57.55
63090;BME280;49174;43.198;27.824;2023-09-19T12:29:17;101699.09;;;26.27;57.57
63090;BME280;49174;43.198;27.824;2023-09-19T12:31:58;101702.13;;;26.30;56.31
63090;BME280;49174;43.198;27.824;2023-09-19T12:34:28;101703.28;;;26.09;56.33
63090;BME280;49174;43.198;27.824;2023-09-19T12:37:14;101692.78;;;26.06;58.24
63090;BME280;49174;43.198;27.824;2023-09-19T12:39:53;101696.09;;;25.93;56.73
63090;BME280;49174;43.198;27.824;2023-09-19T12:42:40;101687.78;;;26.03;57.79
63090;BME280;49174;43.198;27.824;2023-09-19T12:45:07;101697.16;;;25.76;58.70
63090;BME280;49174;43.198;27.824;2023-09-19T12:47:34;101690.81;;;25.96;58.42
63090;BME280;49174;43.198;27.824;2023-09-19T12:50:10;101682.81;;;25.95;57.95
63090;BME280;49174;43.198;27.824;2023-09-19T12:52:40;101682.22;;;25.82;56.67
63090;BME280;49174;43.198;27.824;2023-09-19T12:55:06;101679.75;;;25.96;55.07
63090;BME280;49174;43.198;27.824;2023-09-19T12:57:35;101676.44;;;26.10;55.52
63090;BME280;49174;43.198;27.824;2023-09-19T13:00:04;101680.31;;;25.78;56.19
63090;BME280;49174;43.198;27.824;2023-09-19T13:02:37;101677.81;;;25.76;56.73
63090;BME280;49174;43.198;27.824;2023-09-19T13:05:03;101676.19;;;26.01;54.24
63090;BME280;49174;43.198;27.824;2023-09-19T13:07:45;101672.03;;;26.03;56.04
63090;BME280;49174;43.198;27.824;2023-09-19T13:10:15;101675.66;;;25.89;56.87
63090;BME280;49174;43.198;27.824;2023-09-19T13:12:44;101674.25;;;25.86;58.33
63090;BME280;49174;43.198;27.824;2023-09-19T13:15:14;101677.81;;;25.76;60.08
63090;BME280;49174;43.198;27.824;2023-09-19T13:17:49;101673.09;;;25.56;59.57
63090;BME280;49174;43.198;27.824;2023-09-19T13:20:22;101675.06;;;25.61;59.81
63090;BME280;49174;43.198;27.824;2023-09-19T13:22:53;101672.00;;;25.47;61.72
63090;BME280;49174;43.198;27.824;2023-09-19T13:25:21;101668.97;;;25.59;60.98
63090;BME280;49174;43.198;27.824;2023-09-19T13:27:49;101666.78;;;25.66;58.21
63090;BME280;49174;43.198;27.824;2023-09-19T13:30:17;101670.91;;;25.53;59.90
63090;BME280;49174;43.198;27.824;2023-09-19T13:32:43;101666.19;;;25.59;60.26
63090;BME280;49174;43.198;27.824;2023-09-19T13:35:09;101667.03;;;25.54;59.72
63090;BME280;49174;43.198;27.824;2023-09-19T13:37:35;101674.47;;;25.49;59.78
63090;BME280;49174;43.198;27.824;2023-09-19T13:40:10;101672.28;;;25.51;58.48
63090;BME280;49174;43.198;27.824;2023-09-19T13:42:36;101681.69;;;25.50;58.70
63090;BME280;49174;43.198;27.824;2023-09-19T13:45:03;101671.19;;;25.62;58.41
63090;BME280;49174;43.198;27.824;2023-09-19T13:47:30;101680.84;;;25.54;59.82
63090;BME280;49174;43.198;27.824;2023-09-19T13:49:56;101671.16;;;25.57;60.38